Terminal Aerodrome Forecast
Issued by NWS Rapid City, SD

Home | Current Version | Previous Version | Text Only | Print | Product List | Glossary Off
Versions: 1 2 3 4 5 6 7 8 9 10 11 12 13 14 15 16

000
FTUS43 KUNR 022320
TAFRAP
TAF
KRAP 022320Z 0300/0324 36017KT P6SM BKN150
     FM030200 36007KT P6SM BKN200
     FM031200 35018KT P6SM BKN200=

USA.gov is the U.S. government's official web portal to all federal, state and local government web resources and services.